createdAt,value
2023-01-25T00:00:46.456Z,103431.56
2023-01-25T00:03:14.233Z,103426.44
2023-01-25T00:05:42.050Z,103414.31
2023-01-25T00:08:11.084Z,103412.09
2023-01-25T00:10:38.868Z,103397.13
2023-01-25T00:13:06.695Z,103393.44
2023-01-25T00:15:34.449Z,103392.41
2023-01-25T00:18:02.143Z,103387.22
2023-01-25T00:20:29.850Z,103388.28
2023-01-25T00:22:57.530Z,103386.19
2023-01-25T00:25:26.623Z,103377.13
2023-01-25T00:27:54.297Z,103363.34
2023-01-25T00:30:22.227Z,103356.69
2023-01-25T00:32:58.835Z,103351.72
2023-01-25T00:35:32.507Z,103345.16
2023-01-25T00:38:03.469Z,103331.59
2023-01-25T00:40:32.601Z,103326.81
2023-01-25T00:43:01.699Z,103317.41
2023-01-25T00:45:29.562Z,103311.78
2023-01-25T00:47:57.660Z,103316.50
2023-01-25T00:50:25.394Z,103305.84
2023-01-25T00:52:53.097Z,103305.84
2023-01-25T00:55:20.850Z,103301.03
2023-01-25T00:57:49.892Z,103302.53
2023-01-25T01:00:18.405Z,103296.50
2023-01-25T01:02:46.137Z,103305.34
2023-01-25T01:05:14.006Z,103308.50
2023-01-25T01:07:41.750Z,103312.94
2023-01-25T01:10:10.329Z,103317.38
2023-01-25T01:12:38.124Z,103316.97
2023-01-25T01:15:09.310Z,103316.25
2023-01-25T01:17:37.192Z,103317.91
2023-01-25T01:20:05.459Z,103317.84
2023-01-25T01:22:33.162Z,103320.56
2023-01-25T01:25:00.919Z,103319.19
2023-01-25T01:27:28.775Z,103315.28
2023-01-25T01:29:56.498Z,103310.06
2023-01-25T01:32:25.785Z,103305.69
2023-01-25T01:34:53.621Z,103310.16
2023-01-25T01:37:21.356Z,103302.22
2023-01-25T01:39:49.128Z,103304.38
2023-01-25T01:42:16.846Z,103311.41
2023-01-25T01:44:47.807Z,103303.13
2023-01-25T01:47:21.045Z,103299.81
2023-01-25T01:49:54.081Z,103306.50
2023-01-25T01:52:25.929Z,103306.66
2023-01-25T01:54:58.322Z,103292.03
2023-01-25T01:57:31.359Z,103299.47
2023-01-25T02:00:03.956Z,103286.00
2023-01-25T02:02:31.817Z,103289.94
2023-01-25T02:05:06.219Z,103285.28
2023-01-25T02:07:35.714Z,103287.19
2023-01-25T02:10:04.659Z,103296.75
2023-01-25T02:12:32.988Z,103295.75
2023-01-25T02:15:00.810Z,103288.47
2023-01-25T02:17:31.049Z,103289.94
2023-01-25T02:20:04.841Z,103286.25
2023-01-25T02:22:39.130Z,103285.41
2023-01-25T02:25:10.226Z,103291.91
2023-01-25T02:27:43.439Z,103278.63
2023-01-25T02:30:12.001Z,103282.84
2023-01-25T02:32:39.756Z,103274.25
2023-01-25T02:35:09.183Z,103281.47
2023-01-25T02:37:37.521Z,103280.66
2023-01-25T02:40:06.736Z,103283.22
2023-01-25T02:42:36.099Z,103273.50
2023-01-25T02:45:07.220Z,103270.13
2023-01-25T02:47:35.218Z,103269.31
2023-01-25T02:50:03.110Z,103270.13
2023-01-25T02:52:30.866Z,103268.63
2023-01-25T02:54:58.606Z,103268.63
2023-01-25T02:57:26.318Z,103261.03
2023-01-25T02:59:55.510Z,103259.94
2023-01-25T03:02:23.235Z,103258.84
2023-01-25T03:04:51.211Z,103261.09
2023-01-25T03:07:19.273Z,103261.34
2023-01-25T03:09:47.205Z,103256.69
2023-01-25T03:12:14.946Z,103261.50
2023-01-25T03:14:44.337Z,103253.56
2023-01-25T03:17:13.515Z,103252.06
2023-01-25T03:19:41.279Z,103251.47
2023-01-25T03:22:09.693Z,103243.56
2023-01-25T03:24:38.009Z,103239.84
2023-01-25T03:27:13.215Z,103243.22
2023-01-25T03:29:42.201Z,103238.84
2023-01-25T03:32:10.513Z,103243.25
2023-01-25T03:34:39.815Z,103229.97
2023-01-25T03:37:07.529Z,103235.38
2023-01-25T03:39:35.283Z,103233.22
2023-01-25T03:42:03.254Z,103232.22
2023-01-25T03:44:31.027Z,103227.28
2023-01-25T03:46:58.953Z,103229.94
2023-01-25T03:49:27.904Z,103232.13
2023-01-25T03:51:57.979Z,103228.41
2023-01-25T03:54:25.922Z,103222.53
2023-01-25T03:56:53.615Z,103217.50
2023-01-25T03:59:21.362Z,103217.00
2023-01-25T04:01:49.614Z,103221.25
2023-01-25T04:04:17.524Z,103209.41
2023-01-25T04:06:45.465Z,103200.13
2023-01-25T04:09:14.806Z,103198.31
2023-01-25T04:11:42.847Z,103187.47
2023-01-25T04:14:11.807Z,103182.72
2023-01-25T04:16:39.573Z,103176.03
2023-01-25T04:19:07.470Z,103173.41
2023-01-25T04:21:35.244Z,103172.47
2023-01-25T04:24:03.127Z,103169.00
2023-01-25T04:26:32.242Z,103163.28
2023-01-25T04:29:00.003Z,103165.75
2023-01-25T04:31:27.901Z,103155.94
2023-01-25T04:33:56.905Z,103151.41
2023-01-25T04:36:24.700Z,103147.00
2023-01-25T04:38:52.489Z,103144.47
2023-01-25T04:41:20.329Z,103150.53
2023-01-25T04:43:49.597Z,103153.25
2023-01-25T04:46:17.540Z,103144.47
2023-01-25T04:48:45.304Z,103147.66
2023-01-25T04:51:14.334Z,103149.94
2023-01-25T04:53:42.137Z,103142.72
2023-01-25T04:56:11.321Z,103141.50
2023-01-25T04:58:39.011Z,103142.13
2023-01-25T05:01:08.393Z,103128.69
2023-01-25T05:03:36.138Z,103132.28
2023-01-25T05:06:03.859Z,103127.91
2023-01-25T05:08:31.635Z,103123.19
2023-01-25T05:10:59.349Z,103127.31
2023-01-25T05:13:27.084Z,103130.59
2023-01-25T05:15:58.980Z,103124.56
2023-01-25T05:18:33.204Z,103122.00
2023-01-25T05:21:27.074Z,103121.28
2023-01-25T05:23:55.075Z,103113.81
2023-01-25T05:26:36.737Z,103115.66
2023-01-25T05:29:04.499Z,103115.59
2023-01-25T05:31:32.207Z,103116.69
2023-01-25T05:34:01.344Z,103116.56
2023-01-25T05:36:29.126Z,103119.44
2023-01-25T05:38:56.838Z,103109.63
2023-01-25T05:41:24.687Z,103119.72
2023-01-25T05:43:52.386Z,103118.84
2023-01-25T05:46:20.294Z,103120.22
2023-01-25T05:48:49.180Z,103124.75
2023-01-25T05:51:18.284Z,103123.69
2023-01-25T05:53:46.484Z,103125.50
2023-01-25T05:56:14.475Z,103123.09
2023-01-25T05:58:42.330Z,103123.81
2023-01-25T06:01:10.094Z,103118.09
2023-01-25T06:03:38.064Z,103115.28
2023-01-25T06:06:06.532Z,103105.44
2023-01-25T06:08:36.731Z,103103.38
2023-01-25T06:11:08.238Z,103110.06
2023-01-25T06:13:36.279Z,103095.50
2023-01-25T06:16:04.617Z,103100.53
2023-01-25T06:18:34.768Z,103101.69
2023-01-25T06:21:03.920Z,103092.19
2023-01-25T06:23:32.023Z,103097.06
2023-01-25T06:26:02.726Z,103094.66
2023-01-25T06:28:32.795Z,103087.06
2023-01-25T06:31:06.145Z,103080.97
2023-01-25T06:33:34.397Z,103088.34
2023-01-25T06:36:03.415Z,103087.16
2023-01-25T06:38:31.918Z,103097.44
2023-01-25T06:41:05.647Z,103099.88
2023-01-25T06:43:35.058Z,103097.13
2023-01-25T06:46:05.398Z,103089.84
2023-01-25T06:48:33.978Z,103095.63
2023-01-25T06:51:03.938Z,103091.56
2023-01-25T06:53:34.613Z,103084.94
2023-01-25T06:56:05.904Z,103076.53
2023-01-25T06:58:34.527Z,103070.38
2023-01-25T07:01:04.061Z,103068.84
2023-01-25T07:03:32.844Z,103067.28
2023-01-25T07:06:01.306Z,103062.81
2023-01-25T07:08:29.447Z,103057.25
2023-01-25T07:10:57.987Z,103066.88
2023-01-25T07:13:28.443Z,103063.22
2023-01-25T07:15:57.600Z,103057.97
2023-01-25T07:18:26.335Z,103059.94
2023-01-25T07:20:54.417Z,103067.72
2023-01-25T07:23:22.130Z,103060.03
2023-01-25T07:25:51.517Z,103053.50
2023-01-25T07:28:19.300Z,103050.81
2023-01-25T07:30:49.215Z,103051.03
2023-01-25T07:33:16.960Z,103048.16
2023-01-25T07:35:44.865Z,103053.56
2023-01-25T07:38:13.944Z,103033.34
2023-01-25T07:40:42.973Z,103032.13
2023-01-25T07:43:10.710Z,103035.66
2023-01-25T07:45:38.628Z,103033.28
2023-01-25T07:48:11.838Z,103027.66
2023-01-25T07:50:41.399Z,103023.41
2023-01-25T07:53:09.457Z,103033.69
2023-01-25T07:55:37.339Z,103030.94
2023-01-25T07:58:05.071Z,103022.50
2023-01-25T08:00:32.908Z,103022.19
2023-01-25T08:03:00.598Z,103018.28
2023-01-25T08:05:29.911Z,103016.78
2023-01-25T08:07:57.718Z,103017.25
2023-01-25T08:10:25.624Z,103014.34
2023-01-25T08:12:53.395Z,103007.53
2023-01-25T08:15:21.314Z,103008.50
2023-01-25T08:17:49.062Z,102995.13
2023-01-25T08:20:17.298Z,102999.59
2023-01-25T08:22:46.410Z,102999.09
2023-01-25T08:25:14.201Z,103000.16
2023-01-25T08:27:57.164Z,103000.47
2023-01-25T08:30:24.916Z,102999.44
2023-01-25T08:32:52.658Z,102988.41
2023-01-25T08:35:20.490Z,102998.06
2023-01-25T08:37:49.636Z,102995.97
2023-01-25T08:40:17.936Z,103000.81
2023-01-25T08:42:45.731Z,102989.97
2023-01-25T08:45:13.577Z,102994.19
2023-01-25T08:47:41.282Z,102991.78
2023-01-25T08:50:10.459Z,102983.91
2023-01-25T08:52:38.401Z,102986.00
2023-01-25T08:55:08.342Z,102984.38
2023-01-25T08:57:36.155Z,102989.03
2023-01-25T09:00:05.580Z,102982.84
2023-01-25T09:02:33.939Z,102994.59
2023-01-25T09:05:01.759Z,102996.63
2023-01-25T09:07:32.281Z,102991.75
2023-01-25T09:10:00.644Z,102986.78
2023-01-25T09:12:29.768Z,102993.25
2023-01-25T09:14:57.643Z,102986.91
2023-01-25T09:17:25.421Z,102981.47
2023-01-25T09:19:53.175Z,102982.25
2023-01-25T09:22:20.982Z,102988.44
2023-01-25T09:24:54.479Z,102986.91
2023-01-25T09:27:22.246Z,102980.41
2023-01-25T09:30:01.362Z,102988.41
2023-01-25T09:32:30.206Z,102979.94
2023-01-25T09:34:58.087Z,102977.97
2023-01-25T09:37:25.847Z,102975.75
2023-01-25T09:39:53.664Z,102972.38
2023-01-25T09:42:39.589Z,102968.84
2023-01-25T09:45:25.778Z,102969.91
2023-01-25T09:48:00.415Z,102964.66
2023-01-25T09:50:37.339Z,102969.38
2023-01-25T09:53:22.774Z,102960.84
2023-01-25T09:55:54.264Z,102956.38
2023-01-25T09:58:27.133Z,102963.59
2023-01-25T10:01:14.100Z,102963.78
2023-01-25T10:03:49.424Z,102956.84
2023-01-25T10:06:18.963Z,102950.81
2023-01-25T10:08:56.753Z,102950.91
2023-01-25T10:11:27.718Z,102951.78
2023-01-25T10:13:56.985Z,102947.91
2023-01-25T10:16:32.897Z,102940.84
2023-01-25T10:19:21.968Z,102940.09
2023-01-25T10:21:54.731Z,102942.50
2023-01-25T10:25:05.902Z,102935.88
2023-01-25T10:27:41.402Z,102923.31
2023-01-25T10:30:28.409Z,102922.25
2023-01-25T10:33:01.584Z,102911.72
2023-01-25T10:35:39.062Z,102909.31
2023-01-25T10:38:17.289Z,102899.97
2023-01-25T10:40:49.692Z,102910.22
2023-01-25T10:43:21.032Z,102900.53
2023-01-25T10:45:50.242Z,102889.69
2023-01-25T10:48:22.448Z,102899.47
2023-01-25T10:50:54.085Z,102895.22
2023-01-25T10:53:27.902Z,102897.38
2023-01-25T10:56:19.297Z,102889.03
2023-01-25T10:58:48.718Z,102880.91
2023-01-25T11:01:27.997Z,102883.16
2023-01-25T11:03:57.673Z,102880.16
2023-01-25T11:06:36.794Z,102878.50
2023-01-25T11:09:31.837Z,102866.72
2023-01-25T11:12:01.614Z,102862.81
2023-01-25T11:14:31.241Z,102855.59
2023-01-25T11:17:01.433Z,102853.03
2023-01-25T11:19:35.256Z,102853.19
2023-01-25T11:22:04.824Z,102846.44
2023-01-25T11:24:34.598Z,102843.84
2023-01-25T11:27:19.715Z,102833.25
2023-01-25T11:29:49.084Z,102829.97
2023-01-25T11:32:28.255Z,102831.13
2023-01-25T11:34:57.508Z,102818.19
2023-01-25T11:37:45.529Z,102800.97
2023-01-25T11:40:20.895Z,102799.16
2023-01-25T11:43:00.003Z,102798.84
2023-01-25T11:46:01.665Z,102799.44
2023-01-25T11:48:46.222Z,102795.06
2023-01-25T11:51:25.054Z,102781.81
2023-01-25T11:54:07.502Z,102779.53
2023-01-25T11:56:49.994Z,102768.53
2023-01-25T11:59:37.780Z,102759.31
2023-01-25T12:02:20.568Z,102757.66
2023-01-25T12:05:09.713Z,102754.19
2023-01-25T12:07:59.068Z,102735.31
2023-01-25T12:10:40.556Z,102733.66
2023-01-25T12:13:18.959Z,102727.03
2023-01-25T12:16:07.566Z,102727.59
2023-01-25T12:19:08.227Z,102724.28
2023-01-25T12:21:53.543Z,102710.59
2023-01-25T12:24:38.569Z,102709.81
2023-01-25T12:27:20.559Z,102705.88
2023-01-25T12:29:56.652Z,102695.03
2023-01-25T12:32:29.414Z,102694.75
2023-01-25T12:35:14.510Z,102682.06
2023-01-25T12:37:46.264Z,102687.78
2023-01-25T12:40:19.566Z,102682.94
2023-01-25T12:42:53.219Z,102676.31
2023-01-25T12:45:26.523Z,102675.41
2023-01-25T12:47:59.102Z,102684.63
2023-01-25T12:50:35.077Z,102674.50
2023-01-25T12:53:08.125Z,102676.63
2023-01-25T12:55:37.777Z,102664.56
2023-01-25T12:58:18.225Z,102657.31
2023-01-25T13:00:56.864Z,102657.31
2023-01-25T13:03:31.610Z,102658.34
2023-01-25T13:06:07.921Z,102657.91
2023-01-25T13:08:43.364Z,102661.06
2023-01-25T13:11:17.765Z,102659.13
2023-01-25T13:13:45.643Z,102654.91
2023-01-25T13:16:43.256Z,102654.13
2023-01-25T13:19:22.044Z,102656.41
2023-01-25T13:21:52.855Z,102654.00
2023-01-25T13:24:24.644Z,102646.16
2023-01-25T13:27:05.907Z,102636.19
2023-01-25T13:29:59.027Z,102628.34
2023-01-25T13:33:03.727Z,102634.38
2023-01-25T13:35:43.075Z,102621.56
2023-01-25T13:38:30.802Z,102607.84
2023-01-25T13:41:17.288Z,102611.03
2023-01-25T13:43:49.617Z,102611.47
2023-01-25T13:46:24.266Z,102615.22
2023-01-25T13:49:18.564Z,102616.00
2023-01-25T13:51:46.516Z,102603.03
2023-01-25T13:54:17.504Z,102597.88
2023-01-25T13:56:48.354Z,102596.09
2023-01-25T13:59:29.004Z,102600.16
2023-01-25T14:01:58.529Z,102588.88
2023-01-25T14:04:26.790Z,102592.16
2023-01-25T14:06:58.633Z,102589.16
2023-01-25T14:09:26.534Z,102577.69
2023-01-25T14:11:57.113Z,102574.38
2023-01-25T14:14:29.641Z,102576.47
2023-01-25T14:17:18.428Z,102570.47
2023-01-25T14:19:49.969Z,102573.19
2023-01-25T14:22:27.050Z,102576.19
2023-01-25T14:25:08.279Z,102565.63
2023-01-25T14:27:38.075Z,102564.72
2023-01-25T14:30:17.984Z,102562.00
2023-01-25T14:32:46.051Z,102558.09
2023-01-25T14:35:43.516Z,102554.34
2023-01-25T14:38:30.275Z,102555.06
2023-01-25T14:41:08.490Z,102549.22
2023-01-25T14:43:38.439Z,102555.06
2023-01-25T14:46:22.079Z,102541.47
2023-01-25T14:48:49.981Z,102532.91
2023-01-25T14:51:24.794Z,102534.72
2023-01-25T14:53:58.926Z,102532.91
2023-01-25T14:56:42.679Z,102534.84
2023-01-25T14:59:26.096Z,102526.44
2023-01-25T15:01:57.847Z,102519.03
2023-01-25T15:04:26.487Z,102514.78
2023-01-25T15:06:59.083Z,102513.31
2023-01-25T15:09:42.336Z,102505.00
2023-01-25T15:12:30.124Z,102496.13
2023-01-25T15:15:00.174Z,102492.16
2023-01-25T15:17:40.520Z,102491.44
2023-01-25T15:20:28.139Z,102496.72
2023-01-25T15:22:57.514Z,102491.00
2023-01-25T15:25:25.618Z,102490.56
2023-01-25T15:27:56.691Z,102487.25
2023-01-25T15:30:24.472Z,102483.13
2023-01-25T15:32:53.705Z,102486.94
2023-01-25T15:35:23.414Z,102488.75
2023-01-25T15:37:51.438Z,102474.56
2023-01-25T15:40:19.563Z,102481.53
2023-01-25T15:42:47.371Z,102484.25
2023-01-25T15:45:15.264Z,102485.13
2023-01-25T15:47:43.052Z,102473.38
2023-01-25T15:50:19.327Z,102480.00
2023-01-25T15:52:48.299Z,102469.94
2023-01-25T15:55:18.337Z,102470.50
2023-01-25T15:57:46.945Z,102465.22
2023-01-25T16:00:21.407Z,102468.88
2023-01-25T16:02:49.110Z,102471.59
2023-01-25T16:05:18.357Z,102462.53
2023-01-25T16:07:46.732Z,102453.78
2023-01-25T16:10:24.786Z,102442.97
2023-01-25T16:12:52.641Z,102444.16
2023-01-25T16:15:21.550Z,102439.44
2023-01-25T16:17:49.310Z,102439.00
2023-01-25T16:20:22.833Z,102436.91
2023-01-25T16:22:53.560Z,102423.81
2023-01-25T16:25:21.590Z,102420.75
2023-01-25T16:27:49.893Z,102422.13
2023-01-25T16:30:21.791Z,102415.19
2023-01-25T16:32:52.453Z,102418.78
2023-01-25T16:35:21.823Z,102413.66
2023-01-25T16:37:50.712Z,102408.25
2023-01-25T16:40:29.912Z,102406.13
2023-01-25T16:42:57.814Z,102414.28
2023-01-25T16:45:25.823Z,102405.88
2023-01-25T16:47:53.731Z,102406.91
2023-01-25T16:50:24.316Z,102401.47
2023-01-25T16:52:53.173Z,102398.34
2023-01-25T16:55:20.982Z,102403.59
2023-01-25T16:57:52.244Z,102391.66
2023-01-25T17:00:24.965Z,102382.91
2023-01-25T17:02:59.234Z,102381.41
2023-01-25T17:05:32.858Z,102379.59
2023-01-25T17:08:00.708Z,102371.03
2023-01-25T17:10:29.713Z,102366.03
2023-01-25T17:12:57.490Z,102372.94
2023-01-25T17:15:25.200Z,102372.34
2023-01-25T17:17:52.930Z,102373.25
2023-01-25T17:20:20.689Z,102370.28
2023-01-25T17:22:51.247Z,102367.25
2023-01-25T17:25:19.395Z,102365.44
2023-01-25T17:27:47.420Z,102363.81
2023-01-25T17:30:15.775Z,102364.88
2023-01-25T17:32:43.550Z,102353.28
2023-01-25T17:35:11.326Z,102354.47
2023-01-25T17:37:41.038Z,102351.91
2023-01-25T17:40:12.714Z,102346.31
2023-01-25T17:42:40.639Z,102350.41
2023-01-25T17:45:09.826Z,102347.66
2023-01-25T17:47:37.805Z,102341.66
2023-01-25T17:50:06.196Z,102331.06
2023-01-25T17:52:33.926Z,102330.03
2023-01-25T17:55:02.002Z,102331.41
2023-01-25T17:57:31.504Z,102340.75
2023-01-25T17:59:59.426Z,102331.72
2023-01-25T18:02:27.487Z,102330.22
2023-01-25T18:04:55.387Z,102324.94
2023-01-25T18:07:23.126Z,102319.09
2023-01-25T18:09:50.880Z,102312.16
2023-01-25T18:12:22.939Z,102314.88
2023-01-25T18:14:52.391Z,102318.78
2023-01-25T18:17:20.162Z,102314.69
2023-01-25T18:19:48.974Z,102306.66
2023-01-25T18:22:16.808Z,102301.28
2023-01-25T18:24:45.199Z,102308.50
2023-01-25T18:27:19.675Z,102303.66
2023-01-25T18:29:55.441Z,102308.53
2023-01-25T18:32:23.672Z,102304.53
2023-01-25T18:34:51.515Z,102298.63
2023-01-25T18:37:20.670Z,102303.16
2023-01-25T18:39:50.081Z,102305.25
2023-01-25T18:42:18.546Z,102301.31
2023-01-25T18:44:48.549Z,102311.09
2023-01-25T18:47:20.048Z,102306.16
2023-01-25T18:49:49.262Z,102300.13
2023-01-25T18:52:18.233Z,102300.13
2023-01-25T18:54:46.605Z,102291.06
2023-01-25T18:57:15.081Z,102285.66
2023-01-25T18:59:42.925Z,102288.66
2023-01-25T19:02:12.589Z,102279.94
2023-01-25T19:04:42.387Z,102276.03
2023-01-25T19:07:10.431Z,102263.66
2023-01-25T19:09:38.619Z,102271.19
2023-01-25T19:12:07.380Z,102271.16
2023-01-25T19:14:35.524Z,102260.91
2023-01-25T19:17:03.395Z,102256.69
2023-01-25T19:19:33.600Z,102256.13
2023-01-25T19:22:02.956Z,102257.94
2023-01-25T19:24:31.060Z,102254.94
2023-01-25T19:26:58.915Z,102255.53
2023-01-25T19:29:26.790Z,102243.78
2023-01-25T19:31:54.780Z,102236.25
2023-01-25T19:34:22.730Z,102232.66
2023-01-25T19:36:50.627Z,102239.84
2023-01-25T19:39:19.778Z,102231.28
2023-01-25T19:41:47.819Z,102229.59
2023-01-25T19:44:16.201Z,102219.22
2023-01-25T19:46:44.134Z,102222.41
2023-01-25T19:49:13.235Z,102214.56
2023-01-25T19:51:45.528Z,102201.84
2023-01-25T19:54:16.827Z,102212.47
2023-01-25T19:56:48.085Z,102202.28
2023-01-25T19:59:17.704Z,102197.75
2023-01-25T20:01:46.258Z,102201.06
2023-01-25T20:04:16.270Z,102188.56
2023-01-25T20:06:44.398Z,102187.47
2023-01-25T20:09:14.162Z,102189.06
2023-01-25T20:11:42.632Z,102177.59
2023-01-25T20:14:14.324Z,102171.63
2023-01-25T20:16:42.601Z,102180.34
2023-01-25T20:19:12.880Z,102181.09
2023-01-25T20:21:43.922Z,102178.09
2023-01-25T20:24:11.673Z,102182.31
2023-01-25T20:26:43.113Z,102175.66
2023-01-25T20:29:13.537Z,102176.38
2023-01-25T20:31:43.659Z,102173.97
2023-01-25T20:34:14.135Z,102174.59
2023-01-25T20:36:43.653Z,102174.19
2023-01-25T20:39:14.113Z,102175.06
2023-01-25T20:41:42.607Z,102177.63
2023-01-25T20:44:13.957Z,102173.72
2023-01-25T20:46:46.187Z,102177.59
2023-01-25T20:49:16.259Z,102169.16
2023-01-25T20:51:44.328Z,102173.91
2023-01-25T20:54:12.863Z,102159.53
2023-01-25T20:56:40.784Z,102155.34
2023-01-25T20:59:08.697Z,102156.53
2023-01-25T21:01:38.028Z,102151.38
2023-01-25T21:04:07.607Z,102147.16
2023-01-25T21:06:35.977Z,102151.72
2023-01-25T21:09:04.376Z,102149.25
2023-01-25T21:11:32.587Z,102152.53
2023-01-25T21:14:00.331Z,102159.16
2023-01-25T21:16:28.531Z,102152.59
2023-01-25T21:18:59.364Z,102148.41
2023-01-25T21:21:28.924Z,102143.00
2023-01-25T21:24:02.474Z,102149.63
2023-01-25T21:26:31.920Z,102149.34
2023-01-25T21:29:00.911Z,102153.75
2023-01-25T21:31:30.860Z,102152.38
2023-01-25T21:34:00.650Z,102138.72
2023-01-25T21:36:29.196Z,102127.81
2023-01-25T21:38:58.061Z,102123.59
2023-01-25T21:41:29.391Z,102124.75
2023-01-25T21:44:17.372Z,102120.41
2023-01-25T21:47:04.186Z,102117.16
2023-01-25T21:49:52.734Z,102114.06
2023-01-25T21:52:20.594Z,102107.44
2023-01-25T21:54:48.788Z,102112.31
2023-01-25T21:57:16.593Z,102114.72
2023-01-25T21:59:44.405Z,102110.75
2023-01-25T22:02:14.797Z,102118.91
2023-01-25T22:04:44.097Z,102124.31
2023-01-25T22:07:12.015Z,102117.59
2023-01-25T22:09:40.073Z,102126.16
2023-01-25T22:12:07.942Z,102120.16
2023-01-25T22:14:36.567Z,102115.31
2023-01-25T22:17:05.009Z,102115.88
2023-01-25T22:19:33.522Z,102114.53
2023-01-25T22:22:02.714Z,102114.09
2023-01-25T22:24:30.800Z,102105.41
2023-01-25T22:27:05.512Z,102099.31
2023-01-25T22:29:34.342Z,102107.03
2023-01-25T22:32:02.549Z,102094.06
2023-01-25T22:34:30.415Z,102097.84
2023-01-25T22:36:58.171Z,102092.25
2023-01-25T22:39:27.295Z,102090.28
2023-01-25T22:41:55.798Z,102088.84
2023-01-25T22:44:23.657Z,102084.84
2023-01-25T22:46:52.923Z,102089.97
2023-01-25T22:49:20.822Z,102083.34
2023-01-25T22:51:48.805Z,102080.97
2023-01-25T22:54:16.683Z,102083.38
2023-01-25T22:56:45.776Z,102078.34
2023-01-25T22:59:14.797Z,102077.94
2023-01-25T23:01:42.633Z,102075.84
2023-01-25T23:04:13.234Z,102080.56
2023-01-25T23:06:41.131Z,102079.94
2023-01-25T23:09:08.995Z,102071.34
2023-01-25T23:11:40.066Z,102062.06
2023-01-25T23:14:29.761Z,102059.38
2023-01-25T23:17:17.798Z,102056.34
2023-01-25T23:19:44.832Z,102059.19
2023-01-25T23:22:15.928Z,102046.38
2023-01-25T23:24:44.565Z,102042.84
2023-01-25T23:27:13.737Z,102047.91
2023-01-25T23:29:44.655Z,102046.47
2023-01-25T23:32:12.478Z,102043.72
2023-01-25T23:34:40.716Z,102046.41
2023-01-25T23:37:08.637Z,102041.91
2023-01-25T23:39:36.680Z,102039.31
2023-01-25T23:42:04.394Z,102037.38
2023-01-25T23:44:32.227Z,102034.56
2023-01-25T23:47:01.588Z,102032.00
2023-01-25T23:49:29.403Z,102027.63
2023-01-25T23:51:57.097Z,102027.59
2023-01-25T23:54:26.853Z,102020.09
2023-01-25T23:56:55.185Z,102015.47
2023-01-25T23:59:23.034Z,102006.28
